createdAt,value
2022-11-29T00:01:55.288Z,11.07
2022-11-29T00:04:21.468Z,10.32
2022-11-29T00:06:47.641Z,11.23
2022-11-29T00:09:13.808Z,10.35
2022-11-29T00:11:39.957Z,11.88
2022-11-29T00:14:06.129Z,11.07
2022-11-29T00:16:32.294Z,10.65
2022-11-29T00:18:58.433Z,9.95
2022-11-29T00:21:24.561Z,10.07
2022-11-29T00:23:50.789Z,10.70
2022-11-29T00:26:16.970Z,10.98
2022-11-29T00:28:43.288Z,10.60
2022-11-29T00:31:11.556Z,11.02
2022-11-29T00:33:37.728Z,11.32
2022-11-29T00:36:03.885Z,11.10
2022-11-29T00:38:30.083Z,10.90
2022-11-29T00:40:56.211Z,10.32
2022-11-29T00:43:22.412Z,10.50
2022-11-29T00:45:48.693Z,11.23
2022-11-29T00:48:15.009Z,10.32
2022-11-29T00:50:41.152Z,10.32
2022-11-29T00:53:07.353Z,9.65
2022-11-29T00:55:33.574Z,9.85
2022-11-29T00:57:59.734Z,10.63
2022-11-29T01:00:28.199Z,10.73
2022-11-29T01:02:54.337Z,9.57
2022-11-29T01:05:20.511Z,9.95
2022-11-29T01:07:46.715Z,10.30
2022-11-29T01:10:12.880Z,10.77
2022-11-29T01:12:39.093Z,9.45
2022-11-29T01:15:05.437Z,10.20
2022-11-29T01:17:31.591Z,10.70
2022-11-29T01:19:57.753Z,10.68
2022-11-29T01:22:23.940Z,10.40
2022-11-29T01:24:50.135Z,10.35
2022-11-29T01:27:16.265Z,9.95
2022-11-29T01:29:42.400Z,11.13
2022-11-29T01:32:08.602Z,11.20
2022-11-29T01:34:34.875Z,10.02
2022-11-29T01:37:01.017Z,11.25
2022-11-29T01:39:27.209Z,10.30
2022-11-29T01:41:53.345Z,11.52
2022-11-29T01:44:19.478Z,10.18
2022-11-29T01:46:45.623Z,11.05
2022-11-29T01:49:11.762Z,10.40
2022-11-29T01:51:37.924Z,9.63
2022-11-29T01:54:04.317Z,10.07
2022-11-29T01:56:30.447Z,10.48
2022-11-29T01:58:56.617Z,10.82
2022-11-29T02:01:22.797Z,10.60
2022-11-29T02:03:49.008Z,9.85
2022-11-29T02:06:15.223Z,10.25
2022-11-29T02:08:41.349Z,9.27
2022-11-29T02:11:07.519Z,10.23
2022-11-29T02:13:33.728Z,9.32
2022-11-29T02:15:59.920Z,9.48
2022-11-29T02:18:26.127Z,10.18
2022-11-29T02:20:52.292Z,10.30
2022-11-29T02:23:18.565Z,9.98
2022-11-29T02:25:44.745Z,9.98
2022-11-29T02:28:10.875Z,9.70
2022-11-29T02:30:37.072Z,9.18
2022-11-29T02:33:03.331Z,10.00
2022-11-29T02:35:29.938Z,10.50
2022-11-29T02:37:56.092Z,9.35
2022-11-29T02:40:22.287Z,10.30
2022-11-29T02:42:52.585Z,9.73
2022-11-29T02:45:22.473Z,10.40
2022-11-29T02:47:48.623Z,10.23
2022-11-29T02:50:14.780Z,10.10
2022-11-29T02:52:40.920Z,10.25
2022-11-29T02:55:07.044Z,10.57
2022-11-29T02:57:33.204Z,9.40
2022-11-29T02:59:59.372Z,9.90
2022-11-29T03:02:25.591Z,11.02
2022-11-29T03:04:51.865Z,10.15
2022-11-29T03:07:18.085Z,11.05
2022-11-29T03:09:45.459Z,11.13
2022-11-29T03:12:11.669Z,10.90
2022-11-29T03:14:37.832Z,10.75
2022-11-29T03:17:03.998Z,11.32
2022-11-29T03:19:30.123Z,10.77
2022-11-29T03:21:56.322Z,10.95
2022-11-29T03:24:22.474Z,10.60
2022-11-29T03:26:48.691Z,11.18
2022-11-29T03:29:14.983Z,10.38
2022-11-29T03:31:41.297Z,10.15
2022-11-29T03:34:07.509Z,12.45
2022-11-29T03:36:33.738Z,11.00
2022-11-29T03:38:59.940Z,11.30
2022-11-29T03:41:26.146Z,11.05
2022-11-29T03:43:52.327Z,11.90
2022-11-29T03:46:18.550Z,11.52
2022-11-29T03:48:44.730Z,11.70
2022-11-29T03:51:10.907Z,10.90
2022-11-29T03:53:37.139Z,11.15
2022-11-29T03:56:03.438Z,10.68
2022-11-29T03:58:29.596Z,11.00
2022-11-29T04:00:55.802Z,11.80
2022-11-29T04:03:22.041Z,10.32
2022-11-29T04:05:48.209Z,10.48
2022-11-29T04:08:14.414Z,11.23
2022-11-29T04:10:40.717Z,12.07
2022-11-29T04:13:06.939Z,12.98
2022-11-29T04:15:33.122Z,12.85
2022-11-29T04:17:59.301Z,13.43
2022-11-29T04:20:26.485Z,14.80
2022-11-29T04:22:52.669Z,14.93
2022-11-29T04:25:18.843Z,14.13
2022-11-29T04:27:45.012Z,14.23
2022-11-29T04:30:11.237Z,14.88
2022-11-29T04:32:37.366Z,12.95
2022-11-29T04:35:03.547Z,13.52
2022-11-29T04:37:29.695Z,14.05
2022-11-29T04:39:55.846Z,14.27
2022-11-29T04:42:21.997Z,14.60
2022-11-29T04:44:48.194Z,13.65
2022-11-29T04:47:14.344Z,15.40
2022-11-29T04:49:40.501Z,14.27
2022-11-29T04:52:06.700Z,14.00
2022-11-29T04:54:32.858Z,13.93
2022-11-29T04:56:59.003Z,17.30
2022-11-29T04:59:25.271Z,13.48
2022-11-29T05:01:51.520Z,13.13
2022-11-29T05:04:17.689Z,15.00
2022-11-29T05:06:43.914Z,13.15
2022-11-29T05:09:10.078Z,14.07
2022-11-29T05:11:36.278Z,13.85
2022-11-29T05:14:02.419Z,14.30
2022-11-29T05:16:28.618Z,13.25
2022-11-29T05:18:55.550Z,15.25
2022-11-29T05:21:21.832Z,13.55
2022-11-29T05:23:48.024Z,13.25
2022-11-29T05:26:14.227Z,14.77
2022-11-29T05:28:40.401Z,13.70
2022-11-29T05:31:06.753Z,15.65
2022-11-29T05:33:32.939Z,13.20
2022-11-29T05:35:59.091Z,14.95
2022-11-29T05:38:25.271Z,14.15
2022-11-29T05:40:51.443Z,14.38
2022-11-29T05:43:17.613Z,15.15
2022-11-29T05:45:46.496Z,15.18
2022-11-29T05:48:12.675Z,13.27
2022-11-29T05:50:38.847Z,13.38
2022-11-29T05:53:05.030Z,14.75
2022-11-29T05:55:31.207Z,15.25
2022-11-29T05:57:57.346Z,14.52
2022-11-29T06:00:23.501Z,14.73
2022-11-29T06:02:49.722Z,15.20
2022-11-29T06:05:15.870Z,15.05
2022-11-29T06:07:42.076Z,15.60
2022-11-29T06:10:08.468Z,13.40
2022-11-29T06:12:34.632Z,15.05
2022-11-29T06:15:00.806Z,14.63
2022-11-29T06:17:26.976Z,14.45
2022-11-29T06:19:53.118Z,13.73
2022-11-29T06:22:19.277Z,15.88
2022-11-29T06:24:45.690Z,14.43
2022-11-29T06:27:11.983Z,13.57
2022-11-29T06:29:38.163Z,14.50
2022-11-29T06:32:04.315Z,14.93
2022-11-29T06:34:30.980Z,14.35
2022-11-29T06:36:57.256Z,15.02
2022-11-29T06:39:23.391Z,13.50
2022-11-29T06:41:49.583Z,13.65
2022-11-29T06:44:15.705Z,14.30
2022-11-29T06:46:41.926Z,15.23
2022-11-29T06:49:08.128Z,13.93
2022-11-29T06:51:34.251Z,13.52
2022-11-29T06:54:00.411Z,15.73
2022-11-29T06:56:26.578Z,14.45
2022-11-29T06:58:52.763Z,14.95
2022-11-29T07:01:18.994Z,13.00
2022-11-29T07:03:45.163Z,14.25
2022-11-29T07:06:18.732Z,13.68
2022-11-29T07:08:44.854Z,14.35
2022-11-29T07:11:10.994Z,13.35
2022-11-29T07:13:37.160Z,13.05
2022-11-29T07:16:03.391Z,14.70
2022-11-29T07:18:29.636Z,14.10
2022-11-29T07:20:55.788Z,14.88
2022-11-29T07:23:21.968Z,16.33
2022-11-29T07:25:48.145Z,16.52
2022-11-29T07:28:14.302Z,15.38
2022-11-29T07:30:40.474Z,16.05
2022-11-29T07:33:06.638Z,16.05
2022-11-29T07:35:32.802Z,16.73
2022-11-29T07:37:58.996Z,14.32
2022-11-29T07:40:25.223Z,15.25
2022-11-29T07:42:51.396Z,16.48
2022-11-29T07:45:17.618Z,17.80
2022-11-29T07:47:43.765Z,19.52
2022-11-29T07:50:09.880Z,19.80
2022-11-29T07:52:36.075Z,19.63
2022-11-29T07:55:02.251Z,20.98
2022-11-29T07:57:28.417Z,20.20
2022-11-29T07:59:54.688Z,19.98
2022-11-29T08:02:20.962Z,20.90
2022-11-29T08:04:47.480Z,21.58
2022-11-29T08:07:19.434Z,21.88
2022-11-29T08:09:45.895Z,20.92
2022-11-29T08:12:12.220Z,20.60
2022-11-29T08:14:38.452Z,22.05
2022-11-29T08:17:04.650Z,20.75
2022-11-29T08:19:30.774Z,20.48
2022-11-29T08:21:56.947Z,20.95
2022-11-29T08:24:23.138Z,18.30
2022-11-29T08:26:49.332Z,19.05
2022-11-29T08:29:15.565Z,19.67
2022-11-29T08:31:41.813Z,17.83
2022-11-29T08:34:08.025Z,18.98
2022-11-29T08:36:37.360Z,19.45
2022-11-29T08:39:08.861Z,18.60
2022-11-29T08:41:36.618Z,19.92
2022-11-29T08:44:02.788Z,21.27
2022-11-29T08:46:28.949Z,22.25
2022-11-29T08:48:55.092Z,20.67
2022-11-29T08:51:21.234Z,21.38
2022-11-29T08:53:47.466Z,19.00
2022-11-29T08:56:59.594Z,18.98
2022-11-29T08:58:59.818Z,18.35
2022-11-29T09:01:26.093Z,16.92
2022-11-29T09:03:52.234Z,18.23
2022-11-29T09:06:18.371Z,17.67
2022-11-29T09:08:44.564Z,17.08
2022-11-29T09:11:10.717Z,17.83
2022-11-29T09:13:36.916Z,16.20
2022-11-29T09:16:03.074Z,16.83
2022-11-29T09:18:29.212Z,16.90
2022-11-29T09:20:55.361Z,17.85
2022-11-29T09:23:21.527Z,15.55
2022-11-29T09:25:47.669Z,16.02
2022-11-29T09:28:13.855Z,15.45
2022-11-29T09:30:40.249Z,16.88
2022-11-29T09:33:06.440Z,16.83
2022-11-29T09:35:32.600Z,17.48
2022-11-29T09:37:59.940Z,16.73
2022-11-29T09:40:26.093Z,15.40
2022-11-29T09:42:52.218Z,15.30
2022-11-29T09:45:18.333Z,15.48
2022-11-29T09:47:44.526Z,16.75
2022-11-29T09:50:10.716Z,17.17
2022-11-29T09:52:36.890Z,18.25
2022-11-29T09:55:03.076Z,17.85
2022-11-29T09:57:29.443Z,15.70
2022-11-29T09:59:55.649Z,18.13
2022-11-29T10:02:22.751Z,17.00
2022-11-29T10:04:49.011Z,18.52
2022-11-29T10:07:15.321Z,18.02
2022-11-29T10:09:41.737Z,17.35
2022-11-29T10:12:07.952Z,18.60
2022-11-29T10:14:34.201Z,19.02
2022-11-29T10:17:00.505Z,19.17
2022-11-29T10:19:26.714Z,20.05
2022-11-29T10:21:52.957Z,19.70
2022-11-29T10:24:19.562Z,17.35
2022-11-29T10:26:45.812Z,18.00
2022-11-29T10:29:12.084Z,17.60
2022-11-29T10:31:38.250Z,18.60
2022-11-29T10:34:09.855Z,18.83
2022-11-29T10:36:36.102Z,17.85
2022-11-29T10:39:02.493Z,17.73
2022-11-29T10:41:28.724Z,16.42
2022-11-29T10:43:55.033Z,16.33
2022-11-29T10:46:21.257Z,16.38
2022-11-29T10:48:47.448Z,16.35
2022-11-29T10:51:14.723Z,17.00
2022-11-29T10:53:41.064Z,15.25
2022-11-29T10:56:07.269Z,15.23
2022-11-29T10:58:33.639Z,16.95
2022-11-29T11:00:59.964Z,16.80
2022-11-29T11:03:26.324Z,15.25
2022-11-29T11:05:52.517Z,17.42
2022-11-29T11:08:18.746Z,15.85
2022-11-29T11:10:48.218Z,17.10
2022-11-29T11:13:18.662Z,15.77
2022-11-29T11:15:44.878Z,16.05
2022-11-29T11:18:11.067Z,16.52
2022-11-29T11:20:37.336Z,15.35
2022-11-29T11:23:03.568Z,15.68
2022-11-29T11:25:29.706Z,15.02
2022-11-29T11:27:55.982Z,15.07
2022-11-29T11:30:22.174Z,15.65
2022-11-29T11:32:48.377Z,15.48
2022-11-29T11:35:18.414Z,15.02
2022-11-29T11:37:44.845Z,14.93
2022-11-29T11:40:11.057Z,15.20
2022-11-29T11:42:37.284Z,15.32
2022-11-29T11:45:03.707Z,15.90
2022-11-29T11:47:30.299Z,15.30
2022-11-29T11:49:56.680Z,15.32
2022-11-29T11:52:22.892Z,15.70
2022-11-29T11:54:49.017Z,15.68
2022-11-29T11:57:15.287Z,15.10
2022-11-29T11:59:41.438Z,14.32
2022-11-29T12:02:07.637Z,15.07
2022-11-29T12:04:33.867Z,15.13
2022-11-29T12:07:00.206Z,16.83
2022-11-29T12:09:26.412Z,14.27
2022-11-29T12:11:52.787Z,16.25
2022-11-29T12:14:19.040Z,16.05
2022-11-29T12:16:45.436Z,15.80
2022-11-29T12:19:11.640Z,14.15
2022-11-29T12:21:37.845Z,15.30
2022-11-29T12:24:04.069Z,14.18
2022-11-29T12:26:55.917Z,13.48
2022-11-29T12:29:17.692Z,12.02
2022-11-29T12:31:43.860Z,12.30
2022-11-29T12:34:10.011Z,13.20
2022-11-29T12:36:36.192Z,13.52
2022-11-29T12:39:02.398Z,14.32
2022-11-29T12:41:35.192Z,14.35
2022-11-29T12:44:01.365Z,13.88
2022-11-29T12:46:27.596Z,14.13
2022-11-29T12:48:53.803Z,14.23
2022-11-29T12:51:20.224Z,12.48
2022-11-29T12:53:46.409Z,11.02
2022-11-29T12:56:12.756Z,12.38
2022-11-29T12:58:44.220Z,13.15
2022-11-29T13:01:12.279Z,12.02
2022-11-29T13:03:38.617Z,11.85
2022-11-29T13:06:06.280Z,13.23
2022-11-29T13:08:32.468Z,13.70
2022-11-29T13:10:58.893Z,13.48
2022-11-29T13:13:25.089Z,14.98
2022-11-29T13:15:51.388Z,14.48
2022-11-29T13:18:17.708Z,14.77
2022-11-29T13:20:43.900Z,13.85
2022-11-29T13:23:10.198Z,14.02
2022-11-29T13:25:36.453Z,13.98
2022-11-29T13:28:05.861Z,13.68
2022-11-29T13:30:32.229Z,14.45
2022-11-29T13:32:58.525Z,13.45
2022-11-29T13:35:25.002Z,14.20
2022-11-29T13:37:55.219Z,13.60
2022-11-29T13:40:21.896Z,13.27
2022-11-29T13:42:48.050Z,14.80
2022-11-29T13:45:14.258Z,14.68
2022-11-29T13:47:40.675Z,13.77
2022-11-29T13:50:07.143Z,16.33
2022-11-29T13:52:33.677Z,16.05
2022-11-29T13:54:59.848Z,14.77
2022-11-29T13:57:26.230Z,16.52
2022-11-29T13:59:52.655Z,15.40
2022-11-29T14:02:18.824Z,14.13
2022-11-29T14:04:45.403Z,16.63
2022-11-29T14:07:11.896Z,15.25
2022-11-29T14:09:38.128Z,15.27
2022-11-29T14:12:04.332Z,15.98
2022-11-29T14:14:30.535Z,17.90
2022-11-29T14:16:56.961Z,16.70
2022-11-29T14:19:23.362Z,19.42
2022-11-29T14:21:49.551Z,16.90
2022-11-29T14:24:15.909Z,17.20
2022-11-29T14:26:42.140Z,14.88
2022-11-29T14:29:08.337Z,16.60
2022-11-29T14:31:34.619Z,15.55
2022-11-29T14:34:04.884Z,14.95
2022-11-29T14:36:31.054Z,16.20
2022-11-29T14:38:57.227Z,14.25
2022-11-29T14:41:23.410Z,16.40
2022-11-29T14:43:49.639Z,16.70
2022-11-29T14:46:15.951Z,16.58
2022-11-29T14:48:42.334Z,17.52
2022-11-29T14:51:08.565Z,17.33
2022-11-29T14:53:34.913Z,15.43
2022-11-29T14:56:01.165Z,16.27
2022-11-29T14:58:27.361Z,16.05
2022-11-29T15:00:56.144Z,16.58
2022-11-29T15:03:22.504Z,15.88
2022-11-29T15:05:48.747Z,16.70
2022-11-29T15:08:16.904Z,15.77
2022-11-29T15:10:43.138Z,15.93
2022-11-29T15:13:09.529Z,16.42
2022-11-29T15:15:35.891Z,17.92
2022-11-29T15:18:02.074Z,18.58
2022-11-29T15:20:28.269Z,17.42
2022-11-29T15:22:54.602Z,16.42
2022-11-29T15:25:20.976Z,16.35
2022-11-29T15:27:47.238Z,16.02
2022-11-29T15:30:19.575Z,17.23
2022-11-29T15:32:45.757Z,18.20
2022-11-29T15:35:12.016Z,16.20
2022-11-29T15:37:44.246Z,16.83
2022-11-29T15:40:10.701Z,15.75
2022-11-29T15:42:36.885Z,17.15
2022-11-29T15:45:03.106Z,16.38
2022-11-29T15:47:29.317Z,16.15
2022-11-29T15:49:58.806Z,16.38
2022-11-29T15:52:24.979Z,15.98
2022-11-29T15:54:51.186Z,16.98
2022-11-29T15:57:17.311Z,17.33
2022-11-29T15:59:43.554Z,18.27
2022-11-29T16:02:09.748Z,16.90
2022-11-29T16:04:35.978Z,16.75
2022-11-29T16:07:05.250Z,18.02
2022-11-29T16:09:31.426Z,18.02
2022-11-29T16:11:57.746Z,18.30
2022-11-29T16:14:23.971Z,20.40
2022-11-29T16:16:50.262Z,17.60
2022-11-29T16:19:16.481Z,17.13
2022-11-29T16:21:42.732Z,17.80
2022-11-29T16:24:08.882Z,18.83
2022-11-29T16:26:35.394Z,17.70
2022-11-29T16:29:01.576Z,20.50
2022-11-29T16:31:27.964Z,18.10
2022-11-29T16:33:56.252Z,19.48
2022-11-29T16:36:22.446Z,19.50
2022-11-29T16:38:48.749Z,18.52
2022-11-29T16:41:14.950Z,21.45
2022-11-29T16:43:41.204Z,19.67
2022-11-29T16:46:07.542Z,18.50
2022-11-29T16:48:33.790Z,19.83
2022-11-29T16:50:59.963Z,19.85
2022-11-29T16:53:26.115Z,20.83
2022-11-29T16:55:52.286Z,20.02
2022-11-29T16:58:18.523Z,19.25
2022-11-29T17:00:44.736Z,19.70
2022-11-29T17:03:10.892Z,18.55
2022-11-29T17:05:41.609Z,18.80
2022-11-29T17:08:10.622Z,18.48
2022-11-29T17:10:36.774Z,18.92
2022-11-29T17:13:02.902Z,17.17
2022-11-29T17:15:29.022Z,19.20
2022-11-29T17:17:55.179Z,17.25
2022-11-29T17:20:21.364Z,18.95
2022-11-29T17:22:47.489Z,19.35
2022-11-29T17:25:13.662Z,16.52
2022-11-29T17:27:39.870Z,17.90
2022-11-29T17:30:06.067Z,17.00
2022-11-29T17:32:32.185Z,18.00
2022-11-29T17:34:58.574Z,17.98
2022-11-29T17:37:24.799Z,17.10
2022-11-29T17:39:50.979Z,17.13
2022-11-29T17:42:17.325Z,18.52
2022-11-29T17:44:43.431Z,18.63
2022-11-29T17:47:09.584Z,17.65
2022-11-29T17:49:35.706Z,18.08
2022-11-29T17:52:01.827Z,18.38
2022-11-29T17:54:27.990Z,20.42
2022-11-29T17:56:54.116Z,18.38
2022-11-29T17:59:20.303Z,19.55
2022-11-29T18:01:46.524Z,18.77
2022-11-29T18:04:12.703Z,19.13
2022-11-29T18:06:38.876Z,18.52
2022-11-29T18:09:05.050Z,19.88
2022-11-29T18:11:31.229Z,19.63
2022-11-29T18:13:57.452Z,19.30
2022-11-29T18:16:23.714Z,17.55
2022-11-29T18:18:49.899Z,19.10
2022-11-29T18:21:16.127Z,18.85
2022-11-29T18:23:42.287Z,19.02
2022-11-29T18:26:08.431Z,19.30
2022-11-29T18:28:34.559Z,19.90
2022-11-29T18:31:00.812Z,19.85
2022-11-29T18:33:26.956Z,21.45
2022-11-29T18:35:53.168Z,21.00
2022-11-29T18:38:19.402Z,23.25
2022-11-29T18:40:45.534Z,22.42
2022-11-29T18:43:11.676Z,22.77
2022-11-29T18:45:38.074Z,20.77
2022-11-29T18:48:04.371Z,21.92
2022-11-29T18:50:30.531Z,21.10
2022-11-29T18:52:56.673Z,22.25
2022-11-29T18:55:22.792Z,21.33
2022-11-29T18:57:49.006Z,21.15
2022-11-29T19:00:15.218Z,20.42
2022-11-29T19:02:41.430Z,20.27
2022-11-29T19:05:07.612Z,22.17
2022-11-29T19:07:33.842Z,20.73
2022-11-29T19:10:00.038Z,20.63
2022-11-29T19:12:26.185Z,21.08
2022-11-29T19:14:52.447Z,20.50
2022-11-29T19:17:18.788Z,21.05
2022-11-29T19:19:45.238Z,18.45
2022-11-29T19:22:11.659Z,19.35
2022-11-29T19:24:37.835Z,20.40
2022-11-29T19:27:03.987Z,18.92
2022-11-29T19:29:32.034Z,19.83
2022-11-29T19:32:00.203Z,19.25
2022-11-29T19:34:26.385Z,19.38
2022-11-29T19:36:52.570Z,21.25
2022-11-29T19:39:21.801Z,20.02
2022-11-29T19:41:48.016Z,20.40
2022-11-29T19:44:14.181Z,19.10
2022-11-29T19:46:40.410Z,19.77
2022-11-29T19:49:06.605Z,19.13
2022-11-29T19:51:32.783Z,19.10
2022-11-29T19:53:58.964Z,17.75
2022-11-29T19:56:25.158Z,18.40
2022-11-29T19:58:51.319Z,19.55
2022-11-29T20:01:17.516Z,17.38
2022-11-29T20:03:43.742Z,18.40
2022-11-29T20:06:09.913Z,19.83
2022-11-29T20:08:36.079Z,18.40
2022-11-29T20:11:02.264Z,22.30
2022-11-29T20:13:28.428Z,17.75
2022-11-29T20:15:54.662Z,17.75
2022-11-29T20:18:20.831Z,17.88
2022-11-29T20:20:47.051Z,17.83
2022-11-29T20:23:13.239Z,18.13
2022-11-29T20:25:39.424Z,20.08
2022-11-29T20:28:05.579Z,19.60
2022-11-29T20:30:31.792Z,20.77
2022-11-29T20:32:57.975Z,19.60
2022-11-29T20:35:24.099Z,17.88
2022-11-29T20:37:50.274Z,18.67
2022-11-29T20:40:16.404Z,18.15
2022-11-29T20:42:42.588Z,19.38
2022-11-29T20:45:08.743Z,18.35
2022-11-29T20:47:34.958Z,18.30
2022-11-29T20:50:01.170Z,17.63
2022-11-29T20:52:27.341Z,18.13
2022-11-29T20:54:53.511Z,18.48
2022-11-29T20:57:19.708Z,18.00
2022-11-29T20:59:46.164Z,18.73
2022-11-29T21:02:12.459Z,17.33
2022-11-29T21:04:38.656Z,19.55
2022-11-29T21:07:04.854Z,16.65
2022-11-29T21:09:31.054Z,16.65
2022-11-29T21:11:57.238Z,17.27
2022-11-29T21:14:23.365Z,18.85
2022-11-29T21:16:49.566Z,17.80
2022-11-29T21:19:16.039Z,17.50
2022-11-29T21:21:42.239Z,17.58
2022-11-29T21:24:08.416Z,15.63
2022-11-29T21:26:40.048Z,16.42
2022-11-29T21:29:07.823Z,16.23
2022-11-29T21:31:39.847Z,16.65
2022-11-29T21:34:06.032Z,17.27
2022-11-29T21:36:32.180Z,17.90
2022-11-29T21:39:03.651Z,16.75
2022-11-29T21:41:31.168Z,18.08
2022-11-29T21:44:12.553Z,18.27
2022-11-29T21:46:38.752Z,19.75
2022-11-29T21:49:04.940Z,19.60
2022-11-29T21:51:31.069Z,20.35
2022-11-29T21:53:57.209Z,21.00
2022-11-29T21:56:23.445Z,20.63
2022-11-29T21:58:49.628Z,19.50
2022-11-29T22:01:15.859Z,20.45
2022-11-29T22:03:42.119Z,19.33
2022-11-29T22:06:08.240Z,19.10
2022-11-29T22:08:34.347Z,20.38
2022-11-29T22:11:00.511Z,19.23
2022-11-29T22:13:26.655Z,18.88
2022-11-29T22:15:52.851Z,19.13
2022-11-29T22:18:19.044Z,18.05
2022-11-29T22:20:45.209Z,18.92
2022-11-29T22:23:11.392Z,18.20
2022-11-29T22:25:37.540Z,17.92
2022-11-29T22:28:03.741Z,19.63
2022-11-29T22:30:29.900Z,19.15
2022-11-29T22:32:56.143Z,20.50
2022-11-29T22:35:22.313Z,20.50
2022-11-29T22:37:48.482Z,20.65
2022-11-29T22:40:14.634Z,20.30
2022-11-29T22:42:40.802Z,19.42
2022-11-29T22:45:06.985Z,21.08
2022-11-29T22:47:33.167Z,20.35
2022-11-29T22:49:59.350Z,20.95
2022-11-29T22:52:25.545Z,18.88
2022-11-29T22:54:51.717Z,20.42
2022-11-29T22:57:17.889Z,19.73
2022-11-29T22:59:44.097Z,19.10
2022-11-29T23:02:10.289Z,18.45
2022-11-29T23:04:36.444Z,18.52
2022-11-29T23:07:02.620Z,19.55
2022-11-29T23:09:28.799Z,18.40
2022-11-29T23:11:54.969Z,18.52
2022-11-29T23:14:21.111Z,17.05
2022-11-29T23:16:47.275Z,18.40
2022-11-29T23:19:13.441Z,18.17
2022-11-29T23:21:39.610Z,20.55
2022-11-29T23:24:05.734Z,18.45
2022-11-29T23:26:31.914Z,18.95
2022-11-29T23:28:58.115Z,18.95
2022-11-29T23:31:24.385Z,17.80
2022-11-29T23:33:50.607Z,19.73
2022-11-29T23:36:16.801Z,18.35
2022-11-29T23:38:42.917Z,17.98
2022-11-29T23:41:09.078Z,18.88
2022-11-29T23:43:35.238Z,18.17
2022-11-29T23:46:01.401Z,17.33
2022-11-29T23:48:27.627Z,17.83
2022-11-29T23:50:53.744Z,18.33
2022-11-29T23:53:19.932Z,19.05
2022-11-29T23:55:46.084Z,19.20
2022-11-29T23:58:12.215Z,17.75
